Time;durP1;ratioP1;P1;durP2;ratioP2;P2;SDS_P1;SDS_P2;PMS_P1;PMS_P2;Temp;Humidity;BMP_temperature;BMP_pressure;BME280_temperature;BME280_humidity;BME280_pressure;Samples;Min_cycle;Max_cycle;Signal;HPM_P1;HPM_P2
2021/07/10 00:01:02;;;;;;;28.95;17.75;;;;;;;16.39;86.79;102047.78;5070740;28;20047;-54
2021/07/10 00:03:30;;;;;;;25.63;16.40;;;;;;;16.39;87.03;102041.28;5071364;28;20127;-58
2021/07/10 00:05:58;;;;;;;20.58;14.60;;;;;;;16.41;87.14;102047.47;5071217;28;20481;-58
2021/07/10 00:08:25;;;;;;;19.50;14.02;;;;;;;16.40;87.23;102048.59;5070756;28;20545;-57
2021/07/10 00:10:53;;;;;;;24.98;16.17;;;;;;;16.37;87.05;102049.25;5071289;28;20135;-56
2021/07/10 00:13:21;;;;;;;25.33;17.67;;;;;;;16.33;87.05;102046.22;5071207;28;20089;-53
2021/07/10 00:15:49;;;;;;;23.58;16.02;;;;;;;16.28;87.06;102040.66;5070375;28;20079;-53
2021/07/10 00:18:19;;;;;;;21.67;15.32;;;;;;;16.23;87.17;102037.94;5070973;28;20387;-59
2021/07/10 00:20:47;;;;;;;20.13;12.95;;;;;;;16.20;87.26;102036.56;5058999;28;20076;-58
2021/07/10 00:23:15;;;;;;;19.90;13.77;;;;;;;16.19;87.35;102046.16;5070447;28;20093;-54
2021/07/10 00:25:43;;;;;;;22.48;14.13;;;;;;;16.18;87.27;102035.22;5070902;28;20055;-56
2021/07/10 00:28:11;;;;;;;23.92;16.27;;;;;;;16.15;87.51;102044.28;5070907;28;20036;-55
2021/07/10 00:30:38;;;;;;;26.15;17.85;;;;;;;16.14;87.59;102048.25;5066985;28;20072;-56
2021/07/10 00:33:06;;;;;;;26.73;16.60;;;;;;;16.12;87.57;102045.72;5070875;28;20058;-57
2021/07/10 00:35:36;;;;;;;28.70;18.75;;;;;;;16.10;87.61;102042.38;5071167;28;20132;-59
2021/07/10 00:38:04;;;;;;;26.08;16.77;;;;;;;16.06;87.56;102029.22;5070320;28;20083;-56
2021/07/10 00:40:32;;;;;;;29.65;18.08;;;;;;;16.05;87.50;102034.00;5070921;28;20242;-57
2021/07/10 00:43:00;;;;;;;30.27;18.80;;;;;;;16.02;87.55;102034.63;5070392;28;20127;-58
2021/07/10 00:45:28;;;;;;;26.30;16.70;;;;;;;16.00;87.75;102027.63;5070766;28;20397;-54
2021/07/10 00:47:56;;;;;;;26.80;16.70;;;;;;;16.00;87.89;102027.63;5070504;28;20076;-57
2021/07/10 00:50:25;;;;;;;25.83;16.55;;;;;;;16.00;88.00;102025.66;5070136;28;20148;-56
2021/07/10 00:52:55;;;;;;;28.60;18.05;;;;;;;16.01;88.09;102018.88;5070851;28;20067;-53
2021/07/10 00:55:24;;;;;;;28.88;16.88;;;;;;;16.01;88.25;102015.22;5070461;28;20573;-58
2021/07/10 00:57:55;;;;;;;22.88;13.98;;;;;;;16.02;88.41;102014.06;5070129;28;20143;-57
2021/07/10 01:00:24;;;;;;;22.73;15.13;;;;;;;16.03;88.56;102002.50;5070733;28;20112;-58
2021/07/10 01:02:54;;;;;;;26.48;16.25;;;;;;;16.03;88.41;101999.69;5070749;28;20072;-59
2021/07/10 01:05:24;;;;;;;28.13;18.73;;;;;;;16.04;88.39;102001.38;5070043;28;20041;-58
2021/07/10 01:07:52;;;;;;;25.80;16.10;;;;;;;16.07;88.52;101997.94;5069124;28;20132;-57
2021/07/10 01:10:21;;;;;;;26.73;17.85;;;;;;;16.08;88.23;101993.16;5070470;28;20036;-52
2021/07/10 01:12:51;;;;;;;24.73;16.45;;;;;;;16.07;88.26;101989.50;5068909;28;20048;-55
2021/07/10 01:15:22;;;;;;;19.00;12.63;;;;;;;16.09;88.38;101987.22;5060164;28;20442;-57
2021/07/10 01:17:50;;;;;;;25.50;17.25;;;;;;;16.08;88.20;101982.72;5070706;28;20098;-59
2021/07/10 01:20:20;;;;;;;24.02;15.38;;;;;;;16.09;88.13;101992.00;5069766;28;20079;-56
2021/07/10 01:22:51;;;;;;;23.40;16.27;;;;;;;16.09;88.19;101989.19;5069058;28;20048;-56
2021/07/10 01:25:22;;;;;;;25.85;17.30;;;;;;;16.09;88.00;101986.38;5068709;28;20044;-56
2021/07/10 01:27:51;;;;;;;25.67;17.90;;;;;;;16.08;88.02;101987.50;5070513;28;20068;-56
2021/07/10 01:30:21;;;;;;;26.13;18.08;;;;;;;16.09;88.09;101984.38;5066811;28;20119;-53
2021/07/10 01:32:51;;;;;;;24.75;16.08;;;;;;;16.10;88.13;101985.22;5069779;28;20208;-54
2021/07/10 01:35:20;;;;;;;29.42;18.48;;;;;;;16.09;88.18;101992.84;5070389;28;20102;-55
2021/07/10 01:37:50;;;;;;;26.90;17.35;;;;;;;16.07;88.33;101985.84;5070597;28;20044;-55
2021/07/10 01:40:20;;;;;;;24.98;18.00;;;;;;;16.08;88.37;101979.06;5069775;28;20112;-55
2021/07/10 01:42:48;;;;;;;29.67;19.27;;;;;;;16.08;88.37;101976.25;5070221;28;20140;-54
2021/07/10 01:45:18;;;;;;;29.23;20.27;;;;;;;16.08;88.05;101985.53;5069955;28;20482;-58
2021/07/10 01:47:46;;;;;;;20.30;14.75;;;;;;;16.06;88.09;101975.72;5069699;28;20131;-55
2021/07/10 01:50:14;;;;;;;20.77;15.00;;;;;;;16.07;87.92;101978.22;5070260;28;20702;-54
2021/07/10 01:52:43;;;;;;;22.30;15.60;;;;;;;16.10;87.79;101976.78;5069982;28;20135;-57
2021/07/10 01:55:15;;;;;;;23.10;16.98;;;;;;;16.12;87.77;101972.50;5069742;28;20452;-57
2021/07/10 01:57:44;;;;;;;27.95;20.83;;;;;;;16.13;87.60;101970.53;5070099;28;20532;-56
2021/07/10 02:00:14;;;;;;;21.55;15.35;;;;;;;16.15;87.60;101969.09;5070982;28;20131;-56
2021/07/10 02:02:43;;;;;;;24.20;16.20;;;;;;;16.16;87.40;101969.91;5073811;28;20546;-55
2021/07/10 02:05:11;;;;;;;20.33;13.90;;;;;;;16.17;87.32;101963.97;5073452;28;20159;-58
2021/07/10 02:07:40;;;;;;;21.00;14.38;;;;;;;16.16;87.08;101967.09;5072949;28;20458;-55
2021/07/10 02:10:11;;;;;;;23.00;18.42;;;;;;;16.15;86.81;101971.06;5073408;28;20040;-58
2021/07/10 02:12:41;;;;;;;32.08;22.38;;;;;;;16.12;86.84;101966.88;5073330;28;20048;-54
2021/07/10 02:15:11;;;;;;;29.30;20.52;;;;;;;16.13;86.90;101959.28;5072987;28;20123;-58
2021/07/10 02:17:39;;;;;;;30.70;21.40;;;;;;;16.09;86.90;101964.69;5073204;28;20086;-60
2021/07/10 02:20:09;;;;;;;28.27;19.23;;;;;;;16.11;87.07;101964.38;5073156;28;20444;-56
2021/07/10 02:22:37;;;;;;;25.65;18.05;;;;;;;16.09;87.19;101961.03;5072644;28;20489;-55
2021/07/10 02:25:06;;;;;;;35.70;24.58;;;;;;;16.09;87.17;101947.78;5072723;28;20127;-53
2021/07/10 02:27:34;;;;;;;28.80;19.92;;;;;;;16.07;87.22;101955.69;5073245;28;20076;-55
2021/07/10 02:30:06;;;;;;;27.88;21.05;;;;;;;16.07;87.23;101950.06;5072750;28;20040;-56
2021/07/10 02:32:33;;;;;;;28.65;21.08;;;;;;;16.06;87.29;101944.75;5072755;28;20047;-56
2021/07/10 02:35:01;;;;;;;28.02;20.92;;;;;;;16.07;87.52;101937.97;5073115;28;20056;-54
2021/07/10 02:37:29;;;;;;;23.70;17.55;;;;;;;16.09;87.54;101932.88;5072200;28;20086;-53
2021/07/10 02:39:57;;;;;;;28.38;21.20;;;;;;;16.11;87.34;101930.59;5069458;28;20398;-55
2021/07/10 02:42:25;;;;;;;28.50;20.88;;;;;;;16.12;87.60;101921.81;5072907;28;20060;-57
2021/07/10 02:44:52;;;;;;;23.42;18.40;;;;;;;16.15;87.45;101917.56;5071228;28;20036;-57
2021/07/10 02:47:22;;;;;;;24.90;19.10;;;;;;;16.18;87.49;101925.38;5072826;28;20048;-54
2021/07/10 02:49:49;;;;;;;25.98;17.85;;;;;;;16.21;87.30;101921.91;5072061;28;20148;-58
2021/07/10 02:52:17;;;;;;;20.50;16.38;;;;;;;16.23;87.39;101907.53;5072659;28;20420;-55
2021/07/10 02:54:45;;;;;;;24.90;17.85;;;;;;;16.24;87.23;101912.84;5072519;28;20055;-56
2021/07/10 02:57:13;;;;;;;29.45;22.20;;;;;;;16.23;87.30;101916.81;5072012;28;20478;-58
2021/07/10 02:59:41;;;;;;;22.08;14.75;;;;;;;16.24;87.08;101912.03;5071310;28;20079;-55
2021/07/10 03:02:11;;;;;;;25.00;19.13;;;;;;;16.24;86.98;101917.66;5072284;28;20465;-58
2021/07/10 03:04:41;;;;;;;28.13;19.42;;;;;;;16.22;86.81;101914.31;5071805;28;20056;-57
2021/07/10 03:07:09;;;;;;;28.02;19.17;;;;;;;16.20;86.57;101912.63;5072288;28;20040;-57
2021/07/10 03:09:37;;;;;;;24.60;17.83;;;;;;;16.19;86.52;101908.16;5072280;28;20084;-56
2021/07/10 03:12:05;;;;;;;22.30;15.57;;;;;;;16.22;86.40;101897.41;5071304;28;20087;-57
2021/07/10 03:14:33;;;;;;;18.95;14.48;;;;;;;16.20;86.25;101909.81;5072141;28;20040;-58
2021/07/10 03:17:01;;;;;;;18.00;12.55;;;;;;;16.20;85.92;101909.81;5071722;28;20148;-55
2021/07/10 03:19:29;;;;;;;19.48;13.52;;;;;;;16.20;85.72;101903.34;5071475;28;20049;-55
2021/07/10 03:21:58;;;;;;;18.48;12.70;;;;;;;16.19;85.36;101908.16;5071997;28;20075;-50
2021/07/10 03:24:27;;;;;;;15.73;11.88;;;;;;;16.19;84.88;101905.34;5071538;28;20052;-56
2021/07/10 03:26:55;;;;;;;16.50;11.88;;;;;;;16.20;84.56;101895.75;5069709;28;20464;-57
2021/07/10 03:29:23;;;;;;;15.90;12.43;;;;;;;16.22;84.22;101903.88;5071394;28;20064;-58
2021/07/10 03:31:50;;;;;;;18.25;12.93;;;;;;;16.24;84.15;101900.75;5070986;28;20083;-57
2021/07/10 03:34:18;;;;;;;14.75;11.10;;;;;;;16.23;83.86;101899.91;5070526;28;20098;-55
2021/07/10 03:36:46;;;;;;;14.65;11.30;;;;;;;16.23;83.75;101887.81;5072239;28;20043;-56
2021/07/10 03:39:15;;;;;;;16.02;12.57;;;;;;;16.23;83.18;101887.81;5069873;28;20044;-54
2021/07/10 03:41:43;;;;;;;13.85;10.60;;;;;;;16.23;82.94;101890.63;5071409;28;20562;-55
2021/07/10 03:44:11;;;;;;;16.73;13.43;;;;;;;16.24;82.65;101887.50;5071380;28;20183;-57
2021/07/10 03:46:38;;;;;;;13.77;11.75;;;;;;;16.25;82.42;101885.53;5071026;28;20041;-55
2021/07/10 03:49:06;;;;;;;14.88;12.88;;;;;;;16.26;82.20;101888.03;5071511;28;20512;-53
2021/07/10 03:51:34;;;;;;;15.88;13.70;;;;;;;16.26;82.04;101888.03;5070139;28;20106;-55
2021/07/10 03:54:02;;;;;;;15.02;12.52;;;;;;;16.26;81.82;101885.22;5070954;28;20051;-54
2021/07/10 03:56:31;;;;;;;12.73;9.80;;;;;;;16.27;81.24;101884.06;5069588;28;20071;-55
2021/07/10 03:58:59;;;;;;;11.27;9.88;;;;;;;16.25;80.90;101879.91;5071211;28;20079;-58
2021/07/10 04:01:27;;;;;;;16.92;14.63;;;;;;;16.25;80.54;101883.53;5070587;28;20127;-55
2021/07/10 04:03:54;;;;;;;15.10;11.52;;;;;;;16.26;80.41;101876.75;5071501;28;20036;-51
2021/07/10 04:06:22;;;;;;;13.20;11.40;;;;;;;16.27;80.41;101875.63;5071149;28;20132;-56
2021/07/10 04:08:50;;;;;;;9.73;7.30;;;;;;;16.31;80.22;101873.84;5070704;28;20127;-51
2021/07/10 04:11:18;;;;;;;9.43;6.97;;;;;;;16.33;80.13;101867.91;5069493;28;20047;-57
2021/07/10 04:13:47;;;;;;;10.10;7.55;;;;;;;16.32;79.98;101863.41;5071203;28;20123;-55
2021/07/10 04:16:15;;;;;;;8.68;6.82;;;;;;;16.32;79.86;101869.88;5070540;28;20054;-53
2021/07/10 04:18:43;;;;;;;9.07;6.93;;;;;;;16.31;79.49;101864.56;5071001;28;20048;-56
2021/07/10 04:21:11;;;;;;;11.85;8.85;;;;;;;16.31;79.60;101868.22;5070502;28;20508;-52
2021/07/10 04:23:39;;;;;;;11.60;9.57;;;;;;;16.33;79.37;101874.38;5070236;28;20054;-56
2021/07/10 04:26:07;;;;;;;10.23;8.55;;;;;;;16.35;79.52;101865.63;5069625;28;20091;-53
2021/07/10 04:28:34;;;;;;;17.30;12.73;;;;;;;16.37;79.40;101861.34;5067177;28;20472;-54
2021/07/10 04:31:04;;;;;;;13.10;10.32;;;;;;;16.37;79.45;101866.97;5070919;28;20062;-53
2021/07/10 04:33:32;;;;;;;14.05;10.68;;;;;;;16.39;79.21;101866.63;5070536;28;20057;-56
2021/07/10 04:35:59;;;;;;;11.70;9.68;;;;;;;16.39;79.25;101863.81;5070382;28;20115;-51
2021/07/10 04:38:27;;;;;;;13.93;10.80;;;;;;;16.41;79.09;101867.16;5070587;28;20072;-56
2021/07/10 04:40:55;;;;;;;13.77;11.68;;;;;;;16.39;79.03;101875.09;5070898;28;20147;-56
2021/07/10 04:43:23;;;;;;;14.13;11.57;;;;;;;16.37;78.83;101871.78;5070245;28;20101;-57
2021/07/10 04:45:50;;;;;;;15.25;11.35;;;;;;;16.36;78.74;101870.09;5070632;28;20048;-53
2021/07/10 04:48:20;;;;;;;8.88;7.60;;;;;;;16.38;78.85;101873.44;5069343;28;20501;-58
2021/07/10 04:50:47;;;;;;;11.40;8.68;;;;;;;16.40;79.01;101871.13;5069846;28;20167;-55
2021/07/10 04:53:16;;;;;;;10.50;8.40;;;;;;;16.42;78.93;101869.66;5069541;28;20085;-57
2021/07/10 04:55:43;;;;;;;10.20;8.00;;;;;;;16.45;78.69;101871.00;5070588;28;20037;-54
2021/07/10 04:58:11;;;;;;;9.23;7.60;;;;;;;16.48;78.91;101865.59;5070127;28;20060;-58
2021/07/10 05:00:39;;;;;;;10.80;8.27;;;;;;;16.53;78.78;101870.28;5070427;28;20460;-55
2021/07/10 05:03:07;;;;;;;9.32;7.70;;;;;;;16.55;78.58;101868.00;5070254;28;20053;-56
2021/07/10 05:05:36;;;;;;;11.90;8.60;;;;;;;16.57;78.56;101876.13;5070428;28;20043;-56
2021/07/10 05:08:04;;;;;;;9.90;7.45;;;;;;;16.57;78.31;101871.34;5070352;28;20095;-53
2021/07/10 05:10:32;;;;;;;10.73;8.48;;;;;;;16.59;78.49;101871.00;5070114;28;20500;-57
2021/07/10 05:12:59;;;;;;;11.02;8.10;;;;;;;16.61;78.50;101868.69;5070383;28;20063;-56
2021/07/10 05:15:27;;;;;;;10.20;7.68;;;;;;;16.60;78.24;101869.84;5070428;28;20071;-57
2021/07/10 05:17:55;;;;;;;8.82;6.15;;;;;;;16.61;78.37;101872.34;5066321;28;20041;-57
2021/07/10 05:20:24;;;;;;;8.98;6.65;;;;;;;16.64;78.62;101865.28;5070734;28;20079;-56
2021/07/10 05:22:53;;;;;;;6.15;4.22;;;;;;;16.65;78.38;101867.78;5069970;28;20402;-59
2021/07/10 05:25:21;;;;;;;5.82;4.93;;;;;;;16.67;78.14;101854.22;5068393;28;20040;-56
2021/07/10 05:27:49;;;;;;;6.13;4.50;;;;;;;16.70;78.08;101855.56;5068532;28;20051;-56
2021/07/10 05:30:18;;;;;;;7.55;5.10;;;;;;;16.72;77.87;101847.66;5068882;28;20472;-59
2021/07/10 05:32:46;;;;;;;7.63;4.95;;;;;;;16.76;77.87;101857.97;5069251;28;20190;-54
2021/07/10 05:35:18;;;;;;;7.45;4.93;;;;;;;16.80;77.82;101856.16;5070264;28;20561;-55
2021/07/10 05:37:47;;;;;;;7.38;5.20;;;;;;;16.83;77.98;101866.81;5074065;28;20048;-58
2021/07/10 05:40:17;;;;;;;6.18;4.70;;;;;;;16.84;77.48;101871.31;5073377;28;20079;-56
2021/07/10 05:42:47;;;;;;;5.97;5.07;;;;;;;16.84;77.36;101864.81;5072390;28;20390;-57
2021/07/10 05:45:15;;;;;;;7.22;5.38;;;;;;;16.85;77.30;101872.97;5073874;28;20075;-55
2021/07/10 05:47:43;;;;;;;7.75;5.53;;;;;;;16.83;76.99;101861.16;5073307;28;20048;-57
2021/07/10 05:50:12;;;;;;;7.95;5.78;;;;;;;16.85;77.19;101858.03;5073790;28;20044;-57
2021/07/10 05:52:41;;;;;;;6.43;5.50;;;;;;;16.86;77.26;101865.34;5073206;28;20075;-56
2021/07/10 05:55:10;;;;;;;7.15;5.15;;;;;;;16.89;77.39;101861.91;5073803;28;20070;-58
2021/07/10 05:57:39;;;;;;;8.43;5.70;;;;;;;16.93;77.87;101856.47;5073451;28;20098;-57
2021/07/10 06:00:09;;;;;;;7.53;6.28;;;;;;;16.96;78.11;101858.66;5073151;28;20147;-56
2021/07/10 06:02:37;;;;;;;8.40;5.78;;;;;;;17.01;78.43;101855.69;5070017;28;20056;-55
2021/07/10 06:05:09;;;;;;;7.53;5.63;;;;;;;17.04;78.25;101866.34;5069323;28;20071;-59
2021/07/10 06:07:38;;;;;;;8.48;6.07;;;;;;;17.04;78.48;101861.53;5071263;28;20036;-54
2021/07/10 06:10:09;;;;;;;7.15;5.18;;;;;;;17.06;78.47;101878.97;5070746;28;20044;-55
2021/07/10 06:12:37;;;;;;;7.65;5.38;;;;;;;17.04;77.75;101866.34;5071976;28;20076;-58
2021/07/10 06:15:09;;;;;;;5.75;3.97;;;;;;;17.01;77.40;101864.97;5070375;28;20052;-57
2021/07/10 06:17:37;;;;;;;6.88;4.53;;;;;;;17.00;76.91;101862.47;5071694;28;20051;-59
2021/07/10 06:20:08;;;;;;;8.98;5.78;;;;;;;17.03;77.06;101862.69;5070966;28;20127;-54
2021/07/10 06:22:36;;;;;;;7.55;5.18;;;;;;;17.08;77.10;101856.09;5070980;28;20412;-57
2021/07/10 06:25:05;;;;;;;6.35;4.70;;;;;;;17.12;77.03;101857.97;5069510;28;20044;-55
2021/07/10 06:27:33;;;;;;;7.03;5.15;;;;;;;17.18;76.88;101853.03;5070373;28;20083;-58
2021/07/10 06:30:01;;;;;;;7.22;5.68;;;;;;;17.23;77.28;101856.53;5071074;28;20149;-55
2021/07/10 06:32:30;;;;;;;6.00;5.10;;;;;;;17.30;76.87;101850.47;5070869;28;20040;-60
2021/07/10 06:34:58;;;;;;;6.43;4.82;;;;;;;17.33;76.52;101858.28;5070419;28;20106;-57
2021/07/10 06:37:25;;;;;;;8.50;5.47;;;;;;;17.36;76.66;101857.66;5071263;28;20120;-55
2021/07/10 06:39:53;;;;;;;8.13;5.50;;;;;;;17.41;76.50;101865.97;5071161;28;20076;-55
2021/07/10 06:42:22;;;;;;;5.95;4.53;;;;;;;17.43;75.91;101860.84;5070531;28;20508;-52
2021/07/10 06:44:49;;;;;;;6.35;4.78;;;;;;;17.44;75.86;101862.50;5070916;28;20048;-56
2021/07/10 06:47:19;;;;;;;8.50;5.63;;;;;;;17.49;75.75;101864.38;5070058;28;20048;-55
2021/07/10 06:49:48;;;;;;;7.47;5.43;;;;;;;17.54;76.10;101856.63;5070195;28;20060;-55
2021/07/10 06:52:17;;;;;;;6.70;5.13;;;;;;;17.60;75.65;101853.63;5070797;28;20835;-52
2021/07/10 06:54:44;;;;;;;7.03;5.22;;;;;;;17.65;75.58;101847.91;5070773;28;20482;-58
2021/07/10 06:57:12;;;;;;;6.05;4.80;;;;;;;17.69;74.97;101852.59;5070082;28;20071;-56
2021/07/10 06:59:40;;;;;;;7.93;5.95;;;;;;;17.75;74.78;101851.31;5067063;28;20135;-56
2021/07/10 07:02:08;;;;;;;7.15;4.80;;;;;;;17.80;73.97;101853.13;5066176;28;20773;-55
2021/07/10 07:04:37;;;;;;;6.60;5.07;;;;;;;17.83;73.80;101858.13;5070438;28;20055;-58
2021/07/10 07:07:06;;;;;;;6.03;4.20;;;;;;;17.85;73.05;101861.47;5070431;28;20070;-57
2021/07/10 07:09:34;;;;;;;6.80;5.00;;;;;;;17.83;72.75;101867.44;5070591;28;20137;-56
2021/07/10 07:12:02;;;;;;;7.57;4.68;;;;;;;17.85;72.45;101864.28;5069874;28;20165;-56
2021/07/10 07:14:30;;;;;;;6.60;4.85;;;;;;;17.85;72.63;101859.47;5070333;28;20044;-53
2021/07/10 07:16:58;;;;;;;6.97;5.25;;;;;;;17.93;73.22;101862.69;5069606;28;20083;-58
2021/07/10 07:19:26;;;;;;;8.38;5.50;;;;;;;18.00;73.20;101863.88;5070229;28;20477;-56
2021/07/10 07:21:55;;;;;;;8.38;5.35;;;;;;;18.08;73.03;101854.59;5070297;28;20060;-56
2021/07/10 07:24:24;;;;;;;7.50;5.40;;;;;;;18.15;72.81;101865.44;5069891;28;20044;-58
2021/07/10 07:26:52;;;;;;;7.32;4.78;;;;;;;18.20;73.08;101857.63;5070108;28;20464;-56
2021/07/10 07:29:19;;;;;;;6.60;4.32;;;;;;;18.22;72.50;101860.13;5069866;28;20412;-55
2021/07/10 07:31:47;;;;;;;6.68;5.13;;;;;;;18.22;72.46;101863.78;5069761;28;20965;-56
2021/07/10 07:34:15;;;;;;;6.72;4.50;;;;;;;18.22;71.90;101862.97;5069789;28;20040;-58
2021/07/10 07:36:43;;;;;;;6.35;4.88;;;;;;;18.25;71.32;101859.50;5070118;28;20052;-58
2021/07/10 07:39:11;;;;;;;8.15;5.30;;;;;;;18.25;71.16;101863.16;5069341;28;20043;-55
2021/07/10 07:41:40;;;;;;;7.10;5.25;;;;;;;18.30;71.04;101856.53;5069136;28;20119;-53
2021/07/10 07:44:08;;;;;;;7.93;5.10;;;;;;;18.34;70.61;101857.53;5070187;28;20044;-56
2021/07/10 07:46:36;;;;;;;6.25;4.35;;;;;;;18.37;70.72;101854.06;5068639;28;20131;-53
2021/07/10 07:49:04;;;;;;;6.93;5.20;;;;;;;18.42;71.13;101861.53;5069529;28;20056;-54
2021/07/10 07:51:32;;;;;;;6.28;4.75;;;;;;;18.50;70.91;101849.44;5069686;28;20048;-58
2021/07/10 07:54:00;;;;;;;6.47;4.95;;;;;;;18.57;70.99;101853.44;5068977;28;20068;-57
2021/07/10 07:56:28;;;;;;;6.45;4.78;;;;;;;18.58;70.33;101851.47;5069441;28;20139;-57
2021/07/10 07:58:57;;;;;;;5.68;4.10;;;;;;;18.57;70.11;101856.28;5068831;28;20072;-56
2021/07/10 08:01:25;;;;;;;6.18;4.57;;;;;;;18.51;69.64;101851.94;5069733;28;20114;-57
2021/07/10 08:03:53;;;;;;;6.03;4.72;;;;;;;18.55;70.09;101855.78;5069561;28;20054;-54
2021/07/10 08:06:21;;;;;;;6.63;4.57;;;;;;;18.61;69.99;101847.16;5068829;28;20048;-57
2021/07/10 08:08:49;;;;;;;5.60;4.80;;;;;;;18.69;69.94;101844.34;5069212;28;20541;-54
2021/07/10 08:11:17;;;;;;;8.10;4.93;;;;;;;18.81;69.93;101836.03;5069121;28;20124;-54
2021/07/10 08:13:46;;;;;;;5.60;4.65;;;;;;;18.97;69.16;101849.72;5065768;28;20086;-54
2021/07/10 08:16:17;;;;;;;6.32;4.50;;;;;;;19.05;68.11;101843.19;5069097;28;20040;-58
2021/07/10 08:18:45;;;;;;;7.22;4.63;;;;;;;19.06;68.44;101842.03;5069357;28;20052;-57
2021/07/10 08:21:14;;;;;;;6.18;4.25;;;;;;;19.14;68.38;101838.38;5068512;28;20044;-58
2021/07/10 08:23:41;;;;;;;6.22;4.88;;;;;;;19.23;67.65;101839.19;5069304;28;20480;-56
2021/07/10 08:26:09;;;;;;;8.00;4.95;;;;;;;19.36;67.81;101837.38;5068143;28;20079;-58
2021/07/10 08:28:37;;;;;;;5.85;4.70;;;;;;;19.56;67.50;101831.03;5068823;28;20060;-57
2021/07/10 08:31:05;;;;;;;6.90;5.00;;;;;;;19.79;66.86;101838.13;5068416;28;20501;-56
2021/07/10 08:33:34;;;;;;;7.82;5.43;;;;;;;19.96;66.71;101823.09;5069002;28;20228;-55
2021/07/10 08:36:03;;;;;;;7.65;5.13;;;;;;;20.13;66.32;101825.00;5068564;28;20078;-58
2021/07/10 08:38:31;;;;;;;6.55;5.18;;;;;;;20.23;65.53;101822.59;5067809;28;20076;-58
2021/07/10 08:40:59;;;;;;;7.55;4.85;;;;;;;20.39;65.00;101819.22;5068760;28;20151;-59
2021/07/10 08:43:27;;;;;;;6.72;5.10;;;;;;;20.52;63.52;101824.66;5068508;28;20044;-55
2021/07/10 08:45:56;;;;;;;8.45;5.22;;;;;;;20.50;63.05;101829.00;5068956;28;20072;-55
2021/07/10 08:48:25;;;;;;;8.00;5.78;;;;;;;20.54;63.08;101821.47;5068230;28;20103;-58
2021/07/10 08:50:55;;;;;;;8.30;5.70;;;;;;;20.61;62.72;101818.91;5067692;28;20131;-57
2021/07/10 08:53:23;;;;;;;6.82;5.45;;;;;;;20.66;62.79;101817.88;5068936;28;20152;-58
2021/07/10 08:55:52;;;;;;;6.93;5.30;;;;;;;20.77;63.32;101819.16;5068538;28;20046;-56
2021/07/10 08:58:20;;;;;;;6.05;4.47;;;;;;;20.91;64.00;101814.84;5068610;28;20072;-57
2021/07/10 09:00:49;;;;;;;6.80;5.60;;;;;;;21.01;62.98;101807.91;5068378;28;20054;-58
2021/07/10 09:03:18;;;;;;;6.93;5.13;;;;;;;21.07;61.88;101809.38;5068472;28;20806;-57
2021/07/10 09:05:46;;;;;;;8.70;5.43;;;;;;;21.19;62.42;101805.75;5068885;28;20052;-57
2021/07/10 09:08:19;;;;;;;8.30;6.65;;;;;;;21.37;62.53;101806.47;5068628;28;20033;-58
2021/07/10 09:10:51;;;;;;;9.60;7.70;;;;;;;21.45;61.02;101805.53;5070652;28;20053;-57
2021/07/10 09:13:20;;;;;;;6.80;5.32;;;;;;;21.39;61.17;101804.91;5072733;28;20072;-59
2021/07/10 09:15:48;;;;;;;6.30;5.45;;;;;;;21.36;61.87;101807.63;5072700;28;20059;-57
2021/07/10 09:18:16;;;;;;;8.18;5.70;;;;;;;21.45;62.53;101797.84;5072361;28;20045;-57
2021/07/10 09:20:48;;;;;;;8.73;6.65;;;;;;;21.58;62.29;101793.84;5071185;28;20045;-57
2021/07/10 09:23:32;;;;;;;;;;;;;;;21.52;60.19;101792.44;5073161;28;20099;-58
2021/07/10 09:26:13;;;;;;;6.45;5.03;;;;;;;21.59;60.35;101798.34;5072478;28;19924;-57
2021/07/10 09:28:41;;;;;;;6.22;4.75;;;;;;;21.60;61.75;101788.63;5069971;28;20486;-58
2021/07/10 09:31:15;;;;;;;7.78;5.90;;;;;;;21.76;61.71;101794.50;5071477;28;20055;-60
2021/07/10 09:33:43;;;;;;;7.00;5.40;;;;;;;21.94;61.33;101787.41;5069053;28;20056;-58
2021/07/10 09:36:11;;;;;;;7.40;5.20;;;;;;;22.09;60.57;101791.59;5071821;28;20525;-59
2021/07/10 09:38:44;;;;;;;6.47;4.50;;;;;;;22.24;59.96;101781.50;5071147;28;20392;-59
2021/07/10 09:41:13;;;;;;;5.72;4.97;;;;;;;22.42;59.59;101785.75;5069940;28;20405;-57
2021/07/10 09:43:41;;;;;;;7.35;4.85;;;;;;;22.64;58.70;101779.56;5071034;28;20039;-59
2021/07/10 09:46:10;;;;;;;6.03;4.68;;;;;;;22.84;57.67;101788.31;5067430;28;20154;-59
2021/07/10 09:48:40;;;;;;;7.03;5.45;;;;;;;22.75;57.06;101787.59;5072181;28;20121;-60
2021/07/10 09:51:22;;;;;;;6.20;4.88;;;;;;;22.70;57.55;101788.69;5067889;28;20111;-59
2021/07/10 09:54:07;;;;;;;7.82;4.88;;;;;;;22.68;56.10;101782.53;5069260;28;20056;-59
2021/07/10 09:56:37;;;;;;;5.45;4.55;;;;;;;22.58;58.19;101780.19;5071930;28;20041;-58
2021/07/10 09:59:19;;;;;;;7.82;5.65;;;;;;;22.66;57.25;101779.19;5070959;28;20131;-60
2021/07/10 10:01:48;;;;;;;5.68;4.57;;;;;;;22.71;56.96;101781.81;5068916;28;20446;-59
2021/07/10 10:04:22;;;;;;;7.10;5.80;;;;;;;22.68;57.97;101779.66;5071675;28;20094;-60
2021/07/10 10:06:51;;;;;;;6.72;4.72;;;;;;;22.78;57.57;101779.19;5069878;28;20084;-59
2021/07/10 10:09:21;;;;;;;7.25;4.93;;;;;;;22.73;57.44;101782.28;5071077;28;20040;-60
2021/07/10 10:11:55;;;;;;;6.93;4.75;;;;;;;22.77;58.05;101783.25;5070154;28;20079;-60
2021/07/10 10:14:23;;;;;;;5.97;4.60;;;;;;;22.79;57.60;101782.84;5071113;28;20036;-59
2021/07/10 10:16:52;;;;;;;6.88;4.82;;;;;;;22.72;56.98;101783.47;5071362;28;20110;-60
2021/07/10 10:19:21;;;;;;;6.57;4.65;;;;;;;22.54;57.17;101779.22;5071168;28;20491;-58
2021/07/10 10:21:52;;;;;;;6.00;4.78;;;;;;;22.37;57.23;101774.66;5069458;28;20053;-59
2021/07/10 10:24:22;;;;;;;7.05;4.90;;;;;;;22.11;57.27;101775.00;5071307;28;20115;-59
2021/07/10 10:26:51;;;;;;;5.68;4.15;;;;;;;22.02;57.77;101781.97;5070585;28;20123;-58
2021/07/10 10:29:21;;;;;;;6.93;4.93;;;;;;;22.01;58.15;101781.16;5070538;28;20064;-59
2021/07/10 10:31:51;;;;;;;6.60;4.53;;;;;;;22.05;58.22;101779.25;5070996;28;20052;-59
2021/07/10 10:34:19;;;;;;;6.07;5.15;;;;;;;22.12;57.87;101787.22;5069976;28;20064;-59
2021/07/10 10:36:50;;;;;;;6.65;5.07;;;;;;;22.17;58.09;101784.97;5070762;28;20040;-59
2021/07/10 10:39:19;;;;;;;5.07;3.93;;;;;;;22.31;57.88;101788.25;5070884;28;20036;-59
2021/07/10 10:41:51;;;;;;;8.38;5.57;;;;;;;22.40;58.18;101782.44;5070506;28;20044;-58
2021/07/10 10:44:25;;;;;;;6.30;5.43;;;;;;;22.52;58.11;101785.28;5071091;28;20036;-60
2021/07/10 10:46:55;;;;;;;8.02;5.57;;;;;;;22.73;57.96;101787.97;5071108;28;20072;-58
2021/07/10 10:49:39;;;;;;;7.05;5.10;;;;;;;22.88;56.24;101786.41;5068120;28;20072;-60
2021/07/10 10:52:29;;;;;;;7.03;4.82;;;;;;;22.86;55.26;101781.06;5070380;28;20468;-59
2021/07/10 10:54:59;;;;;;;7.82;5.70;;;;;;;22.97;56.65;101785.09;5068312;28;20048;-60
2021/07/10 10:57:38;;;;;;;6.00;4.40;;;;;;;23.17;55.72;101782.41;5070671;28;20548;-60
2021/07/10 11:00:10;;;;;;;8.27;5.55;;;;;;;23.29;56.03;101782.31;5070278;28;20060;-59
2021/07/10 11:03:10;;;;;;;7.35;5.38;;;;;;;23.51;54.18;101776.03;5069964;28;20131;-60
2021/07/10 11:05:47;;;;;;;8.40;6.03;;;;;;;23.57;55.12;101768.91;5028144;28;20084;-59
2021/07/10 11:08:26;;;;;;;6.85;5.85;;;;;;;23.66;54.16;101760.19;5060893;28;20052;-59
2021/07/10 11:11:23;;;;;;;8.35;6.05;;;;;;;23.60;54.34;101762.47;5069703;28;20049;-59
2021/07/10 11:14:10;;;;;;;7.55;5.72;;;;;;;23.75;54.66;101760.00;5068196;28;20135;-59
2021/07/10 11:17:02;;;;;;;7.40;4.80;;;;;;;23.94;54.23;101765.81;5068081;28;20139;-59
2021/07/10 11:19:48;;;;;;;7.70;5.55;;;;;;;24.00;53.88;101761.44;5067378;28;20080;-59
2021/07/10 11:22:56;;;;;;;7.97;6.43;;;;;;;23.95;52.74;101753.19;5070044;28;20561;-59
2021/07/10 11:26:09;;;;;;;7.57;5.32;;;;;;;23.77;52.97;101744.19;5068725;28;20076;-59
2021/07/10 11:28:49;;;;;;;7.38;5.78;;;;;;;23.53;53.22;101745.19;5069371;28;20042;-58
2021/07/10 11:31:24;;;;;;;5.90;5.25;;;;;;;23.33;54.13;101738.53;5066379;28;20064;-59